Startpagina
METAR-TAF:

METAR-TAF

Vliegvelden :

Wallis, Frankrijk

breedte: 13-14S, lengte: 176-10W, hoogte: 23 m

METAR: ontbreekt

Tijdstip: 00:58 (12:58 UTC)

Verwachting

Dit bericht is 1 uur en het 58 minuten geleden gemaakt, om 11:00 UTC
Verwachting geldig van 21 om 12 UTC tot 22 om 12 UTC
Wind 7 kt uit het zuidoosten
Zicht 10 km of meer
Weinig wolken op 2000 ft
Kans 40% :
Tijdelijke
van 21 om 12 UTC tot 21 om 24 UTC
Zicht: 4000 m
Gebroken wolken op 1400 ft
Verspreide wolken op 2500 ft, Stapelwolken.
regenbuien

TAF: NLWW 211100Z 2112/2212 13007KT 9999 FEW020 PROB40 TEMPO 2112/2124 4000 SHRA BKN014 SCT025TCU

Waarnemingen en weersverwachtingen van meer dan 4000 vliegvelden (METAR en TAF).

De beschikbare stations zijn de gele en rode punten op de kaart.

Ga met uw muis naar het station om de naam te zien.

Klik dan om waarnemingen en weersverwachtingen te zien.

kaart wijzigen: klik op de groene knoppen met een zwart kruis om in te zoomen, op de groene knop met een streepje om uit te zoomen of op de groene pijlen voor aangrenzende kaarten.


METAR-TAF: